createdAt,value
2017-10-29T00:00:39.076Z,41.09
2017-10-29T00:01:48.436Z,41.09
2017-10-29T00:02:58.133Z,41.48
2017-10-29T00:04:07.163Z,41.19
2017-10-29T00:05:16.193Z,40.99
2017-10-29T00:06:25.223Z,41.57
2017-10-29T00:07:34.592Z,41.86
2017-10-29T00:08:43.955Z,41.96
2017-10-29T00:09:52.981Z,41.38
2017-10-29T00:11:02.015Z,41.96
2017-10-29T00:12:10.713Z,41.96
2017-10-29T00:13:20.079Z,41.96
2017-10-29T00:14:29.440Z,41.57
2017-10-29T00:15:38.474Z,41.48
2017-10-29T00:16:47.506Z,41.96
2017-10-29T00:17:56.875Z,41.67
2017-10-29T00:19:05.900Z,42.05
2017-10-29T00:20:14.928Z,41.57
2017-10-29T00:21:23.625Z,42.05
2017-10-29T00:22:32.315Z,42.05
2017-10-29T00:23:41.345Z,41.57
2017-10-29T00:24:50.047Z,42.05
2017-10-29T00:25:58.738Z,42.05
2017-10-29T00:27:07.771Z,41.94
2017-10-29T00:28:17.470Z,41.57
2017-10-29T00:29:26.843Z,41.48
2017-10-29T00:30:36.206Z,41.48
2017-10-29T00:31:45.902Z,41.48
2017-10-29T00:32:54.598Z,41.48
2017-10-29T00:34:03.625Z,41.48
2017-10-29T00:35:12.655Z,41.67
2017-10-29T00:36:22.017Z,41.67
2017-10-29T00:37:30.712Z,42.05
2017-10-29T00:38:39.744Z,41.67
2017-10-29T00:39:49.103Z,41.86
2017-10-29T00:40:58.134Z,41.77
2017-10-29T00:42:06.834Z,41.96
2017-10-29T00:43:16.197Z,41.67
2017-10-29T00:44:25.558Z,41.57
2017-10-29T00:45:35.265Z,41.67
2017-10-29T00:46:44.624Z,41.57
2017-10-29T00:47:54.674Z,42.15
2017-10-29T00:49:04.374Z,41.67
2017-10-29T00:50:13.074Z,41.67
2017-10-29T00:51:22.101Z,41.67
2017-10-29T00:52:30.795Z,41.86
2017-10-29T00:53:39.494Z,41.65
2017-10-29T00:54:48.525Z,41.67
2017-10-29T00:55:57.900Z,41.77
2017-10-29T00:57:06.933Z,41.67
2017-10-29T00:58:15.969Z,41.55
2017-10-29T00:59:24.669Z,41.65
2017-10-29T01:00:33.368Z,41.67
2017-10-29T01:01:42.399Z,41.75
2017-10-29T01:02:51.763Z,41.65
2017-10-29T01:04:01.125Z,41.65
2017-10-29T01:05:10.490Z,41.86
2017-10-29T01:06:19.853Z,41.67
2017-10-29T01:07:28.883Z,41.86
2017-10-29T01:08:37.580Z,41.86
2017-10-29T01:09:46.607Z,41.96
2017-10-29T01:10:55.638Z,41.94
2017-10-29T01:12:04.668Z,41.94
2017-10-29T01:13:14.062Z,42.05
2017-10-29T01:14:23.445Z,42.05
2017-10-29T01:15:32.480Z,41.84
2017-10-29T01:16:41.171Z,41.84
2017-10-29T01:17:50.534Z,41.96
2017-10-29T01:18:59.566Z,42.23
2017-10-29T01:20:08.938Z,42.23
2017-10-29T01:21:17.636Z,42.13
2017-10-29T01:22:26.334Z,42.13
2017-10-29T01:23:35.035Z,42.05
2017-10-29T01:24:43.735Z,42.03
2017-10-29T01:25:53.433Z,42.03
2017-10-29T01:27:02.462Z,42.35
2017-10-29T01:28:11.163Z,42.13
2017-10-29T01:29:20.202Z,42.32
2017-10-29T01:30:29.559Z,42.03
2017-10-29T01:31:38.934Z,42.03
2017-10-29T01:32:48.296Z,42.23
2017-10-29T01:33:56.992Z,41.94
2017-10-29T01:35:05.690Z,42.13
2017-10-29T01:36:14.406Z,42.03
2017-10-29T01:37:23.772Z,42.13
2017-10-29T01:38:33.126Z,42.32
2017-10-29T01:39:42.489Z,42.25
2017-10-29T01:40:52.194Z,42.32
2017-10-29T01:42:01.229Z,42.42
2017-10-29T01:43:10.257Z,42.35
2017-10-29T01:44:18.956Z,42.52
2017-10-29T01:45:27.656Z,42.23
2017-10-29T01:46:37.011Z,42.52
2017-10-29T01:47:46.043Z,42.32
2017-10-29T01:48:54.743Z,42.52
2017-10-29T01:50:03.778Z,42.52
2017-10-29T01:51:12.476Z,42.52
2017-10-29T01:52:21.847Z,42.23
2017-10-29T01:53:31.205Z,42.42
2017-10-29T01:54:40.234Z,42.52
2017-10-29T01:55:49.595Z,42.52
2017-10-29T01:56:59.289Z,42.32
2017-10-29T01:58:08.319Z,42.32
2017-10-29T01:59:17.677Z,42.42
2017-10-29T02:00:27.033Z,42.52
2017-10-29T02:01:37.063Z,42.42
2017-10-29T02:02:46.099Z,42.52
2017-10-29T02:03:55.795Z,42.52
2017-10-29T02:05:04.495Z,42.32
2017-10-29T02:06:13.526Z,42.52
2017-10-29T02:07:22.554Z,42.42
2017-10-29T02:08:32.266Z,42.52
2017-10-29T02:09:41.292Z,42.52
2017-10-29T02:10:50.322Z,42.42
2017-10-29T02:11:59.352Z,42.32
2017-10-29T02:13:08.052Z,42.13
2017-10-29T02:14:16.752Z,42.23
2017-10-29T02:15:26.119Z,42.52
2017-10-29T02:16:35.480Z,42.71
2017-10-29T02:17:44.176Z,42.52
2017-10-29T02:18:53.211Z,42.42
2017-10-29T02:20:02.571Z,42.32
2017-10-29T02:21:11.937Z,42.52
2017-10-29T02:22:20.963Z,42.42
2017-10-29T02:23:29.999Z,42.42
2017-10-29T02:24:39.045Z,42.42
2017-10-29T02:25:48.406Z,42.61
2017-10-29T02:26:57.776Z,42.9
2017-10-29T02:28:06.806Z,43
2017-10-29T02:29:16.168Z,42.42
2017-10-29T02:30:24.866Z,42.42
2017-10-29T02:31:34.230Z,42.32
2017-10-29T02:32:43.262Z,42.9
2017-10-29T02:33:53.292Z,42.52
2017-10-29T02:35:02.326Z,42.9
2017-10-29T02:36:11.692Z,43
2017-10-29T02:37:21.392Z,42.23
2017-10-29T02:38:30.754Z,42.23
2017-10-29T02:39:39.780Z,42.42
2017-10-29T02:40:48.812Z,42.32
2017-10-29T02:41:57.846Z,42.32
2017-10-29T02:43:06.545Z,42.32
2017-10-29T02:44:15.240Z,42.23
2017-10-29T02:45:23.937Z,42.8
2017-10-29T02:46:33.302Z,42.32
2017-10-29T02:47:41.998Z,42.9
2017-10-29T02:48:50.698Z,42.71
2017-10-29T02:49:59.727Z,42.9
2017-10-29T02:51:08.762Z,42.42
2017-10-29T02:52:18.123Z,42.42
2017-10-29T02:53:27.826Z,42.8
2017-10-29T02:54:36.866Z,42.8
2017-10-29T02:55:46.218Z,42.52
2017-10-29T02:56:55.906Z,42.42
2017-10-29T02:58:05.286Z,42.32
2017-10-29T02:59:14.984Z,42.8
2017-10-29T03:00:24.678Z,42.71
2017-10-29T03:01:33.376Z,42.32
2017-10-29T03:02:42.406Z,42.42
2017-10-29T03:03:51.437Z,42.71
2017-10-29T03:05:00.808Z,42.8
2017-10-29T03:06:10.174Z,42.61
2017-10-29T03:07:19.209Z,42.8
2017-10-29T03:08:28.571Z,42.8
2017-10-29T03:09:37.937Z,42.9
2017-10-29T03:10:47.298Z,42.9
2017-10-29T03:11:55.993Z,42.71
2017-10-29T03:13:04.697Z,42.71
2017-10-29T03:14:13.390Z,42.71
2017-10-29T03:15:22.084Z,42.61
2017-10-29T03:16:30.781Z,42.71
2017-10-29T03:17:39.815Z,42.71
2017-10-29T03:18:48.843Z,42.61
2017-10-29T03:19:58.205Z,42.71
2017-10-29T03:21:07.237Z,42.71
2017-10-29T03:22:15.933Z,42.71
2017-10-29T03:23:24.967Z,42.8
2017-10-29T03:24:33.990Z,43
2017-10-29T03:25:43.020Z,42.61
2017-10-29T03:26:52.055Z,42.61
2017-10-29T03:28:01.421Z,42.71
2017-10-29T03:29:10.449Z,42.71
2017-10-29T03:30:19.149Z,42.71
2017-10-29T03:31:28.180Z,42.71
2017-10-29T03:32:36.870Z,42.61
2017-10-29T03:33:46.568Z,42.71
2017-10-29T03:34:55.931Z,43.29
2017-10-29T03:36:05.291Z,43.19
2017-10-29T03:37:13.985Z,42.71
2017-10-29T03:38:23.343Z,42.61
2017-10-29T03:39:32.044Z,42.61
2017-10-29T03:40:41.074Z,42.61
2017-10-29T03:41:50.109Z,42.61
2017-10-29T03:42:59.136Z,42.61
2017-10-29T03:44:08.838Z,42.71
2017-10-29T03:45:17.872Z,42.8
2017-10-29T03:46:27.232Z,42.71
2017-10-29T03:47:36.606Z,42.52
2017-10-29T03:48:46.315Z,42.52
2017-10-29T03:49:55.014Z,42.8
2017-10-29T03:51:04.040Z,42.71
2017-10-29T03:52:12.742Z,42.71
2017-10-29T03:53:21.444Z,42.71
2017-10-29T03:54:30.476Z,42.61
2017-10-29T03:55:40.172Z,42.52
2017-10-29T03:56:49.529Z,42.71
2017-10-29T03:57:58.887Z,42.52
2017-10-29T03:59:07.920Z,42.52
2017-10-29T04:00:16.952Z,42.71
2017-10-29T04:01:25.987Z,42.8
2017-10-29T04:02:35.678Z,42.8
2017-10-29T04:03:45.376Z,42.71
2017-10-29T04:04:54.767Z,42.8
2017-10-29T04:06:04.466Z,42.9
2017-10-29T04:07:13.835Z,42.71
2017-10-29T04:08:22.867Z,42.71
2017-10-29T04:09:31.894Z,42.71
2017-10-29T04:10:41.257Z,42.8
2017-10-29T04:11:50.619Z,42.71
2017-10-29T04:12:59.976Z,42.71
2017-10-29T04:14:08.670Z,42.71
2017-10-29T04:15:17.698Z,43.19
2017-10-29T04:16:28.071Z,42.71
2017-10-29T04:17:37.430Z,42.8
2017-10-29T04:18:46.466Z,42.71
2017-10-29T04:19:55.497Z,43.19
2017-10-29T04:21:04.195Z,42.8
2017-10-29T04:22:13.894Z,42.71
2017-10-29T04:23:22.594Z,42.9
2017-10-29T04:24:31.626Z,42.71
2017-10-29T04:25:40.664Z,42.8
2017-10-29T04:26:49.692Z,43.1
2017-10-29T04:27:59.052Z,42.88
2017-10-29T04:29:08.420Z,42.8
2017-10-29T04:30:17.111Z,43.1
2017-10-29T04:31:25.809Z,42.9
2017-10-29T04:32:34.515Z,42.8
2017-10-29T04:33:43.879Z,42.71
2017-10-29T04:34:52.574Z,42.69
2017-10-29T04:36:01.600Z,42.71
2017-10-29T04:37:10.304Z,42.79
2017-10-29T04:38:18.998Z,43
2017-10-29T04:39:28.709Z,42.42
2017-10-29T04:40:37.742Z,43
2017-10-29T04:41:46.771Z,42.61
2017-10-29T04:42:55.795Z,42.59
2017-10-29T04:44:05.496Z,43
2017-10-29T04:45:14.527Z,42.4
2017-10-29T04:46:24.221Z,42.42
2017-10-29T04:47:33.586Z,43
2017-10-29T04:48:42.612Z,42.69
2017-10-29T04:49:51.643Z,42.42
2017-10-29T04:51:01.013Z,42.61
2017-10-29T04:52:10.042Z,42.71
2017-10-29T04:53:19.731Z,42.9
2017-10-29T04:54:28.763Z,42.8
2017-10-29T04:55:37.797Z,42.9
2017-10-29T04:56:47.156Z,42.61
2017-10-29T04:57:55.851Z,43.1
2017-10-29T04:59:05.540Z,43.1
2017-10-29T05:00:14.573Z,42.88
2017-10-29T05:01:23.606Z,42.8
2017-10-29T05:02:32.632Z,42.79
2017-10-29T05:03:42.660Z,43.17
2017-10-29T05:04:52.030Z,43.07
2017-10-29T05:06:01.056Z,42.8
2017-10-29T05:07:09.763Z,43.27
2017-10-29T05:08:19.126Z,42.79
2017-10-29T05:09:28.158Z,43.07
2017-10-29T05:10:37.855Z,42.69
2017-10-29T05:11:47.217Z,43.17
2017-10-29T05:12:56.242Z,42.97
2017-10-29T05:14:05.269Z,42.9
2017-10-29T05:15:13.966Z,42.69
2017-10-29T05:16:23.331Z,42.79
2017-10-29T05:17:32.358Z,42.79
2017-10-29T05:18:42.392Z,43
2017-10-29T05:19:51.754Z,42.69
2017-10-29T05:21:00.782Z,42.69
2017-10-29T05:22:09.810Z,42.69
2017-10-29T05:23:19.173Z,42.9
2017-10-29T05:24:28.530Z,42.88
2017-10-29T05:25:37.891Z,42.8
2017-10-29T05:26:47.251Z,42.9
2017-10-29T05:27:56.284Z,42.8
2017-10-29T05:29:05.645Z,42.61
2017-10-29T05:30:15.009Z,42.71
2017-10-29T05:31:23.711Z,43
2017-10-29T05:32:32.740Z,42.61
2017-10-29T05:33:41.450Z,42.59
2017-10-29T05:34:50.482Z,43
2017-10-29T05:35:59.846Z,43
2017-10-29T05:37:08.879Z,43
2017-10-29T05:38:17.912Z,43
2017-10-29T05:39:27.956Z,42.59
2017-10-29T05:40:36.983Z,42.71
2017-10-29T05:41:46.682Z,42.8
2017-10-29T05:42:55.375Z,43.19
2017-10-29T05:44:05.397Z,42.71
2017-10-29T05:45:14.424Z,42.8
2017-10-29T05:46:23.801Z,42.8
2017-10-29T05:47:32.498Z,42.8
2017-10-29T05:48:41.530Z,42.8
2017-10-29T05:49:50.226Z,42.71
2017-10-29T05:50:59.589Z,42.71
2017-10-29T05:52:08.621Z,42.52
2017-10-29T05:53:17.649Z,43.19
2017-10-29T05:54:27.692Z,42.61
2017-10-29T05:55:37.059Z,42.8
2017-10-29T05:56:46.423Z,42.71
2017-10-29T05:57:55.788Z,42.71
2017-10-29T05:59:04.816Z,42.71
2017-10-29T06:00:13.846Z,42.71
2017-10-29T06:01:22.870Z,42.61
2017-10-29T06:02:31.899Z,42.8
2017-10-29T06:03:40.602Z,42.9
2017-10-29T06:04:50.634Z,42.71
2017-10-29T06:05:59.685Z,42.71
2017-10-29T06:07:08.384Z,42.8
2017-10-29T06:08:17.748Z,42.32
2017-10-29T06:09:26.774Z,42.9
2017-10-29T06:10:36.140Z,42.42
2017-10-29T06:11:45.510Z,42.42
2017-10-29T06:12:54.213Z,42.8
2017-10-29T06:14:03.243Z,42.32
2017-10-29T06:15:12.617Z,42.32
2017-10-29T06:16:21.644Z,42.42
2017-10-29T06:17:31.010Z,42.42
2017-10-29T06:18:40.373Z,42.9
2017-10-29T06:19:49.072Z,42.32
2017-10-29T06:20:58.104Z,42.32
2017-10-29T06:22:07.137Z,42.9
2017-10-29T06:23:15.835Z,42.23
2017-10-29T06:24:24.865Z,43
2017-10-29T06:25:34.562Z,42.52
2017-10-29T06:26:43.262Z,42.42
2017-10-29T06:27:52.956Z,42.61
2017-10-29T06:29:01.643Z,42.61
2017-10-29T06:30:11.664Z,42.52
2017-10-29T06:31:20.694Z,42.32
2017-10-29T06:32:29.391Z,42.42
2017-10-29T06:33:38.436Z,42.13
2017-10-29T06:34:47.123Z,42.52
2017-10-29T06:35:56.479Z,42.42
2017-10-29T06:37:05.177Z,42.42
2017-10-29T06:38:13.871Z,42.35
2017-10-29T06:39:22.569Z,42.52
2017-10-29T06:40:31.266Z,42.52
2017-10-29T06:41:41.294Z,42.35
2017-10-29T06:42:49.996Z,42.52
2017-10-29T06:43:59.363Z,42.52
2017-10-29T06:45:08.740Z,42.42
2017-10-29T06:46:18.760Z,42.13
2017-10-29T06:47:27.458Z,42.32
2017-10-29T06:48:36.491Z,42.03
2017-10-29T06:49:45.524Z,42.25
2017-10-29T06:50:55.563Z,42.05
2017-10-29T06:52:04.599Z,42.05
2017-10-29T06:53:13.294Z,42.25
2017-10-29T06:54:22.657Z,42.05
2017-10-29T06:55:31.719Z,42.15
2017-10-29T06:56:41.085Z,42.05
2017-10-29T06:57:50.453Z,42.03
2017-10-29T06:58:59.483Z,42.05
2017-10-29T07:00:08.852Z,42.05
2017-10-29T07:01:17.880Z,42.05
2017-10-29T07:02:27.254Z,41.77
2017-10-29T07:03:35.953Z,41.77
2017-10-29T07:04:44.986Z,42.05
2017-10-29T07:05:53.680Z,41.67
2017-10-29T07:07:03.373Z,41.96
2017-10-29T07:08:12.072Z,41.57
2017-10-29T07:09:21.096Z,41.57
2017-10-29T07:10:30.123Z,41.86
2017-10-29T07:11:39.817Z,41.96
2017-10-29T07:12:48.513Z,41.67
2017-10-29T07:13:57.209Z,41.96
2017-10-29T07:15:05.903Z,41.67
2017-10-29T07:16:15.271Z,41.77
2017-10-29T07:17:24.302Z,41.67
2017-10-29T07:18:33.012Z,41.67
2017-10-29T07:19:42.037Z,41.77
2017-10-29T07:20:51.064Z,41.28
2017-10-29T07:22:00.093Z,42.05
2017-10-29T07:23:08.791Z,41.67
2017-10-29T07:24:18.153Z,41.86
2017-10-29T07:25:27.543Z,41.96
2017-10-29T07:26:36.574Z,42.05
2017-10-29T07:27:46.619Z,41.57
2017-10-29T07:28:55.649Z,42.05
2017-10-29T07:30:05.008Z,41.57
2017-10-29T07:31:13.705Z,41.28
2017-10-29T07:32:23.395Z,42.25
2017-10-29T07:33:32.097Z,41.19
2017-10-29T07:34:40.794Z,41.96
2017-10-29T07:35:49.490Z,41.28
2017-10-29T07:36:58.188Z,41.19
2017-10-29T07:38:07.224Z,41.2
2017-10-29T07:39:15.916Z,41.88
2017-10-29T07:40:24.944Z,41.4
2017-10-29T07:41:33.641Z,41.5
2017-10-29T07:42:42.672Z,41.4
2017-10-29T07:43:51.369Z,41.6
2017-10-29T07:45:00.402Z,40.92
2017-10-29T07:46:09.769Z,41.11
2017-10-29T07:47:18.462Z,41.11
2017-10-29T07:48:27.496Z,40.44
2017-10-29T07:49:36.193Z,40.34
2017-10-29T07:50:45.224Z,40.45
2017-10-29T07:51:53.923Z,40.75
2017-10-29T07:53:02.954Z,40.36
2017-10-29T07:54:12.648Z,40.07
2017-10-29T07:55:21.677Z,40.07
2017-10-29T07:56:31.041Z,40.19
2017-10-29T07:57:39.739Z,39.61
2017-10-29T07:58:48.765Z,39.8
2017-10-29T07:59:58.125Z,39.7
2017-10-29T08:01:06.823Z,40.09
2017-10-29T08:02:15.862Z,39.97
2017-10-29T08:03:25.230Z,39.8
2017-10-29T08:04:34.271Z,39.7
2017-10-29T08:05:43.305Z,39.41
2017-10-29T08:06:52.004Z,39.99
2017-10-29T08:08:01.032Z,39.61
2017-10-29T08:09:09.733Z,39.7
2017-10-29T08:10:18.430Z,39.7
2017-10-29T08:11:27.789Z,39.7
2017-10-29T08:12:36.819Z,39.32
2017-10-29T08:13:46.520Z,39.61
2017-10-29T08:14:55.549Z,39.41
2017-10-29T08:16:04.911Z,39.12
2017-10-29T08:17:14.278Z,39.32
2017-10-29T08:18:23.645Z,39.12
2017-10-29T08:19:32.675Z,39.12
2017-10-29T08:20:41.376Z,39.12
2017-10-29T08:21:50.406Z,39.32
2017-10-29T08:23:00.100Z,39.32
2017-10-29T08:24:08.805Z,39.41
2017-10-29T08:25:18.171Z,39.03
2017-10-29T08:26:26.870Z,39.41
2017-10-29T08:27:36.237Z,39.22
2017-10-29T08:28:45.273Z,39.12
2017-10-29T08:29:54.300Z,39.51
2017-10-29T08:31:04.329Z,39.12
2017-10-29T08:32:13.694Z,39.12
2017-10-29T08:33:22.728Z,39.03
2017-10-29T08:34:31.428Z,39.04
2017-10-29T08:35:41.145Z,38.66
2017-10-29T08:36:50.189Z,38.56
2017-10-29T08:37:59.212Z,38.37
2017-10-29T08:39:08.911Z,38.46
2017-10-29T08:40:18.275Z,38.46
2017-10-29T08:41:27.971Z,38.39
2017-10-29T08:42:37.000Z,37.9
2017-10-29T08:43:46.036Z,38.1
2017-10-29T08:44:55.399Z,37.71
2017-10-29T08:46:04.434Z,37.71
2017-10-29T08:47:13.469Z,37.24
2017-10-29T08:48:22.834Z,37.54
2017-10-29T08:49:31.869Z,37.63
2017-10-29T08:50:40.566Z,37.63
2017-10-29T08:51:49.261Z,37.15
2017-10-29T08:52:58.288Z,37.44
2017-10-29T08:54:07.315Z,37.44
2017-10-29T08:55:16.349Z,37.34
2017-10-29T08:56:25.718Z,37.44
2017-10-29T08:57:35.093Z,37.73
2017-10-29T08:58:44.461Z,37.71
2017-10-29T08:59:53.833Z,37.73
2017-10-29T09:01:03.543Z,37.71
2017-10-29T09:02:12.733Z,37.81
2017-10-29T09:03:21.760Z,37.62
2017-10-29T09:04:30.805Z,37.71
2017-10-29T09:05:40.168Z,37.71
2017-10-29T09:06:48.866Z,37.81
2017-10-29T09:07:58.229Z,37.81
2017-10-29T09:09:06.927Z,37.63
2017-10-29T09:10:15.969Z,37.63
2017-10-29T09:11:24.668Z,37.71
2017-10-29T09:12:33.718Z,37.34
2017-10-29T09:13:42.412Z,37.54
2017-10-29T09:14:51.446Z,37.82
2017-10-29T09:16:00.820Z,37.15
2017-10-29T09:17:10.524Z,37.63
2017-10-29T09:18:19.229Z,37.05
2017-10-29T09:19:28.599Z,37.05
2017-10-29T09:20:37.634Z,36.76
2017-10-29T09:21:46.333Z,36.88
2017-10-29T09:22:55.373Z,36.4
2017-10-29T09:24:04.424Z,36.3
2017-10-29T09:25:13.124Z,36.1
2017-10-29T09:26:21.824Z,36.1
2017-10-29T09:27:30.858Z,36.3
2017-10-29T09:28:39.887Z,36.3
2017-10-29T09:29:49.252Z,36.4
2017-10-29T09:30:58.289Z,36.58
2017-10-29T09:32:06.995Z,36.3
2017-10-29T09:33:16.027Z,36.4
2017-10-29T09:34:25.389Z,36.49
2017-10-29T09:35:34.096Z,36.4
2017-10-29T09:36:43.125Z,36.1
2017-10-29T09:37:51.820Z,35.25
2017-10-29T09:39:01.508Z,34.49
2017-10-29T09:40:10.880Z,33.73
2017-10-29T09:41:19.922Z,32.6
2017-10-29T09:42:29.293Z,31.27
2017-10-29T09:43:38.662Z,30.71
2017-10-29T09:44:47.693Z,30.61
2017-10-29T09:45:56.392Z,30.9
2017-10-29T09:47:05.431Z,31
2017-10-29T09:48:14.794Z,30.61
2017-10-29T09:49:24.499Z,30.61
2017-10-29T09:50:33.200Z,30.61
2017-10-29T09:51:42.562Z,30.51
2017-10-29T09:52:51.261Z,30.32
2017-10-29T09:54:00.286Z,30.12
2017-10-29T09:55:09.991Z,30.04
2017-10-29T09:56:19.727Z,29.85
2017-10-29T09:57:29.088Z,29.36
2017-10-29T09:58:38.455Z,29.46
2017-10-29T09:59:47.155Z,29.65
2017-10-29T10:00:55.854Z,28.5
2017-10-29T10:02:04.889Z,28.13
2017-10-29T10:03:14.256Z,27.75
2017-10-29T10:04:23.287Z,27.76
2017-10-29T10:05:32.323Z,28.33
2017-10-29T10:06:41.025Z,28.7
2017-10-29T10:07:50.057Z,28.99
2017-10-29T10:08:59.754Z,29.26
2017-10-29T10:10:09.130Z,29.38
2017-10-29T10:11:18.504Z,29.65
2017-10-29T10:12:27.874Z,30.14
2017-10-29T10:13:37.579Z,30.24
2017-10-29T10:14:46.950Z,30.12
2017-10-29T10:15:55.653Z,30.71
2017-10-29T10:17:05.025Z,30.69
2017-10-29T10:18:14.067Z,30.8
2017-10-29T10:19:23.102Z,30.98
2017-10-29T10:20:32.142Z,31.27
2017-10-29T10:21:41.181Z,31.18
2017-10-29T10:22:50.217Z,30.88
2017-10-29T10:23:59.585Z,31.08
2017-10-29T10:25:08.284Z,31.08
2017-10-29T10:26:17.654Z,31.76
2017-10-29T10:27:27.020Z,31.85
2017-10-29T10:28:36.054Z,31.84
2017-10-29T10:29:45.761Z,32.13
2017-10-29T10:30:54.460Z,32.42
2017-10-29T10:32:03.491Z,32.7
2017-10-29T10:33:12.527Z,32.99
2017-10-29T10:34:22.235Z,33.36
2017-10-29T10:35:31.606Z,33.36
2017-10-29T10:36:40.314Z,33.44
2017-10-29T10:37:49.345Z,33.84
2017-10-29T10:38:58.714Z,33.92
2017-10-29T10:40:08.408Z,34.31
2017-10-29T10:41:17.438Z,34.7
2017-10-29T10:42:27.137Z,34.88
2017-10-29T10:43:36.504Z,35.07
2017-10-29T10:44:45.548Z,35.46
2017-10-29T10:45:54.574Z,35.25
2017-10-29T10:47:03.277Z,35.05
2017-10-29T10:48:12.656Z,35.25
2017-10-29T10:49:21.361Z,35.73
2017-10-29T10:50:30.066Z,36.02
2017-10-29T10:51:40.481Z,35.73
2017-10-29T10:52:50.196Z,36.1
2017-10-29T10:53:59.907Z,36.1
2017-10-29T10:55:09.273Z,36.3
2017-10-29T10:56:18.308Z,36.4
2017-10-29T10:57:27.689Z,36.49
2017-10-29T10:58:37.036Z,36.57
2017-10-29T10:59:46.071Z,36.47
2017-10-29T11:00:55.105Z,36.57
2017-10-29T11:02:03.810Z,36.86
2017-10-29T11:03:13.503Z,37.24
2017-10-29T11:04:23.076Z,37.34
2017-10-29T11:05:32.434Z,37.34
2017-10-29T11:06:41.131Z,37.05
2017-10-29T11:07:50.161Z,37.34
2017-10-29T11:08:59.192Z,36.96
2017-10-29T11:10:08.551Z,36.96
2017-10-29T11:11:17.919Z,36.57
2017-10-29T11:12:26.950Z,36.47
2017-10-29T11:13:36.313Z,35.81
2017-10-29T11:14:45.346Z,35.35
2017-10-29T11:15:54.381Z,34.97
2017-10-29T11:17:04.071Z,33.73
2017-10-29T11:18:13.763Z,32.21
2017-10-29T11:19:22.791Z,30.69
2017-10-29T11:20:31.491Z,29.36
2017-10-29T11:21:40.194Z,28.32
2017-10-29T11:22:48.893Z,27.18
2017-10-29T11:23:58.591Z,26.02
2017-10-29T11:25:07.291Z,24.98
2017-10-29T11:26:16.984Z,24.4
2017-10-29T11:27:26.348Z,23.74
2017-10-29T11:28:35.384Z,23.46
2017-10-29T11:29:44.749Z,23.46
2017-10-29T11:30:53.450Z,23.65
2017-10-29T11:32:02.831Z,24.9
2017-10-29T11:33:11.530Z,24.99
2017-10-29T11:34:20.232Z,26.04
2017-10-29T11:35:29.606Z,26.52
2017-10-29T11:36:38.632Z,27.01
2017-10-29T11:37:48.335Z,27.09
2017-10-29T11:38:57.404Z,27.66
2017-10-29T11:40:06.107Z,28.63
2017-10-29T11:41:15.131Z,28.7
2017-10-29T11:42:24.494Z,28.69
2017-10-29T11:43:33.524Z,29.65
2017-10-29T11:44:42.994Z,29.94
2017-10-29T11:45:52.032Z,30.41
2017-10-29T11:47:02.064Z,30.61
2017-10-29T11:48:11.429Z,30.9
2017-10-29T11:49:21.128Z,31.27
2017-10-29T11:50:30.494Z,31.08
2017-10-29T11:51:39.872Z,31.27
2017-10-29T11:52:49.228Z,31.85
2017-10-29T11:53:57.926Z,31.27
2017-10-29T11:55:07.292Z,31.95
2017-10-29T11:56:16.648Z,32.15
2017-10-29T11:57:25.678Z,32.52
2017-10-29T11:58:35.372Z,32.52
2017-10-29T11:59:44.406Z,32.62
2017-10-29T12:00:53.442Z,32.71
2017-10-29T12:02:02.139Z,32.91
2017-10-29T12:03:11.505Z,33.11
2017-10-29T12:04:21.543Z,33.2
2017-10-29T12:05:30.574Z,33.18
2017-10-29T12:06:39.274Z,33.57
2017-10-29T12:07:48.652Z,33.47
2017-10-29T12:08:58.687Z,33.38
2017-10-29T12:10:08.715Z,33.57
2017-10-29T12:11:18.084Z,33.86
2017-10-29T12:12:27.451Z,33.86
2017-10-29T12:13:36.152Z,33.76
2017-10-29T12:14:45.187Z,33.84
2017-10-29T12:15:54.221Z,33.84
2017-10-29T12:17:03.586Z,34.23
2017-10-29T12:18:12.298Z,34.14
2017-10-29T12:19:21.663Z,34.53
2017-10-29T12:20:31.040Z,34.61
2017-10-29T12:21:40.738Z,34.89
2017-10-29T12:22:49.773Z,34.99
2017-10-29T12:23:59.151Z,34.99
2017-10-29T12:25:08.185Z,35.46
2017-10-29T12:26:17.217Z,35.66
2017-10-29T12:27:25.920Z,35.66
2017-10-29T12:28:34.948Z,35.94
2017-10-29T12:29:44.667Z,35.75
2017-10-29T12:30:53.698Z,35.75
2017-10-29T12:32:02.396Z,36.04
2017-10-29T12:33:12.096Z,35.94
2017-10-29T12:34:21.790Z,36.32
2017-10-29T12:35:30.828Z,36.12
2017-10-29T12:36:39.849Z,36.22
2017-10-29T12:37:48.886Z,36.41
2017-10-29T12:38:58.253Z,36.6
2017-10-29T12:40:07.288Z,36.6
2017-10-29T12:41:16.986Z,36.7
2017-10-29T12:42:26.022Z,36.9
2017-10-29T12:43:35.043Z,36.9
2017-10-29T12:44:44.070Z,36.68
2017-10-29T12:45:52.766Z,37.17
2017-10-29T12:47:01.795Z,36.78
2017-10-29T12:48:11.483Z,36.88
2017-10-29T12:49:20.515Z,36.88
2017-10-29T12:50:29.215Z,37.46
2017-10-29T12:51:38.249Z,37.26
2017-10-29T12:52:47.277Z,37.26
2017-10-29T12:53:55.981Z,37.26
2017-10-29T12:55:04.673Z,37.26
2017-10-29T12:56:13.703Z,36.98
2017-10-29T12:57:22.738Z,37.36
2017-10-29T12:58:32.443Z,37.07
2017-10-29T12:59:41.815Z,37.17
2017-10-29T13:00:50.840Z,37.26
2017-10-29T13:02:00.205Z,36.88
2017-10-29T13:03:09.905Z,37.28
2017-10-29T13:04:18.933Z,37.38
2017-10-29T13:05:27.627Z,37.28
2017-10-29T13:06:36.995Z,37.19
2017-10-29T13:07:45.698Z,36.99
2017-10-29T13:08:54.403Z,37.38
2017-10-29T13:10:04.117Z,37.38
2017-10-29T13:11:12.818Z,37.38
2017-10-29T13:12:22.190Z,37.19
2017-10-29T13:13:31.555Z,37.28
2017-10-29T13:14:40.248Z,37.67
2017-10-29T13:15:49.941Z,37.57
2017-10-29T13:16:59.305Z,37.38
2017-10-29T13:18:08.336Z,37.67
2017-10-29T13:19:17.040Z,37.57
2017-10-29T13:20:25.737Z,37.48
2017-10-29T13:21:35.463Z,37.09
2017-10-29T13:22:44.504Z,37.19
2017-10-29T13:23:53.582Z,37.09
2017-10-29T13:25:03.282Z,37.19
2017-10-29T13:26:11.981Z,37.09
2017-10-29T13:27:21.696Z,37.77
2017-10-29T13:28:30.402Z,37.67
2017-10-29T13:29:39.764Z,37.67
2017-10-29T13:30:49.135Z,37.57
2017-10-29T13:31:57.827Z,37.19
2017-10-29T13:33:07.202Z,37.38
2017-10-29T13:34:16.223Z,37.28
2017-10-29T13:35:26.257Z,37.38
2017-10-29T13:36:35.288Z,37.67
2017-10-29T13:37:44.653Z,37.09
2017-10-29T13:38:53.692Z,37.28
2017-10-29T13:40:02.727Z,37.57
2017-10-29T13:41:11.760Z,37.57
2017-10-29T13:42:20.792Z,37.38
2017-10-29T13:43:30.494Z,37.48
2017-10-29T13:44:39.529Z,37.57
2017-10-29T13:45:48.227Z,37.38
2017-10-29T13:46:56.929Z,37.57
2017-10-29T13:48:05.982Z,37.28
2017-10-29T13:49:16.016Z,37.48
2017-10-29T13:50:24.716Z,37.48
2017-10-29T13:51:34.426Z,37.77
2017-10-29T13:52:43.795Z,37.85
2017-10-29T13:53:52.832Z,37.57
2017-10-29T13:55:01.896Z,37.46
2017-10-29T13:56:10.922Z,37.36
2017-10-29T13:57:19.953Z,37.65
2017-10-29T13:58:29.312Z,37.65
2017-10-29T13:59:38.344Z,37.65
2017-10-29T14:00:47.757Z,37.55
2017-10-29T14:01:56.464Z,37.26
2017-10-29T14:03:05.498Z,37.36
2017-10-29T14:04:14.866Z,37.36
2017-10-29T14:05:23.904Z,37.36
2017-10-29T14:06:33.600Z,37.55
2017-10-29T14:07:42.635Z,37.65
2017-10-29T14:08:52.333Z,37.65
2017-10-29T14:10:01.038Z,37.46
2017-10-29T14:11:11.085Z,37.46
2017-10-29T14:12:20.119Z,37.46
2017-10-29T14:13:29.830Z,37.55
2017-10-29T14:14:39.192Z,37.46
2017-10-29T14:15:47.889Z,37.26
2017-10-29T14:16:56.922Z,37.55
2017-10-29T14:18:05.622Z,37.46
2017-10-29T14:19:14.655Z,37.36
2017-10-29T14:20:23.354Z,37.46
2017-10-29T14:21:32.389Z,37.46
2017-10-29T14:22:41.766Z,37.36
2017-10-29T14:23:51.463Z,37.46
2017-10-29T14:25:00.837Z,37.55
2017-10-29T14:26:10.199Z,37.46
2017-10-29T14:27:19.232Z,37.46
2017-10-29T14:28:28.266Z,37.46
2017-10-29T14:29:37.304Z,37.36
2017-10-29T14:30:46.666Z,37.55
2017-10-29T14:31:55.693Z,37.54
2017-10-29T14:33:05.062Z,37.54
2017-10-29T14:34:14.761Z,37.73
2017-10-29T14:35:23.791Z,37.82
2017-10-29T14:36:32.825Z,37.63
2017-10-29T14:37:41.522Z,37.63
2017-10-29T14:38:50.884Z,37.92
2017-10-29T14:40:00.239Z,37.82
2017-10-29T14:41:09.950Z,37.73
2017-10-29T14:42:18.980Z,37.73
2017-10-29T14:43:28.011Z,37.82
2017-10-29T14:44:36.714Z,37.92
2017-10-29T14:45:45.745Z,38.21
2017-10-29T14:46:54.444Z,38.02
2017-10-29T14:48:03.816Z,37.73
2017-10-29T14:49:12.850Z,38.02
2017-10-29T14:50:21.544Z,37.92
2017-10-29T14:51:30.581Z,38.02
2017-10-29T14:52:39.603Z,38.02
2017-10-29T14:53:48.631Z,38.12
2017-10-29T14:54:57.664Z,38.21
2017-10-29T14:56:06.697Z,38.21